Dentsville, Maryland
Current Conditions -  °F | °C
As of 2:56 AM on Friday 19 Dec 2014 (Local Time) from KNYG Reporting Station
Overcast Overcast  
Wind Chill: 30°   Ceiling: 9000
Heat Index: 36°   Visibility: 10mi
Dew Point: 22°   Wind: 8mph
Humidity: 57%   Direction: 360°N
Pressure: 30.14"   Gusts: NA
Location:  38.5166°N, 76.9981°W
Report Text: KNYG 190756Z AUTO 36007KT 10SM OVC090 02/M06 A3014 RMK AO2 SLP208 T00221056 $
Loading
Personal Weather Stations






























Interactive Weather Map New forecast layout! Learn more

10-Day Weather Forecast

Advertisements
Track Severe Weather on mobile